Chula Vista, CA (91913)

8:52 AM PDT en Julio 29, 2016 (GMT -0700)
Otay Lakes Lodge | | Change Station

Alt 522 ft 32.64 °N, 116.98 °W | Updated 4 minutes ago

Clear
Despejado
85.6 ° F
Sensación térmica 89 ° F
N
4.7
Viento Variable Viento desde SSE

Hoy
Alta -- | Baja -- ° F
--% Posibilidad de precipitaciones
Ayer
Alta -- | Baja -- ° F
Precip. -- pul
Presión 29.85 pul
Visibilidad 10.0 Millas
Nubes Despejado
Índice de calor 89 ° F
Punto de rocío 68 ° F
Humedad 55%
Precipitaciones 0.00 pul
Espesor de la nieve No disponible.
6:00 AM 7:47 PM
Creciente menguante, 21% visible
METAR KSDM 291453Z 00000KT 10SM CLR 24/19 A2986 RMK AO2 SLP106 T02390189 53010
Presión 29.85 pul
Visibilidad 10.0 Millas
Nubes Despejado
Índice de calor 89 ° F
Punto de rocío 68 ° F
Humedad 55%
Precipitaciones 0.00 pul
Espesor de la nieve No disponible.
6:00 AM 7:47 PM
Creciente menguante, 21% visible
METAR KSDM 291453Z 00000KT 10SM CLR 24/19 A2986 RMK AO2 SLP106 T02390189 53010

10-Day Weather Forecast

Almanac

Astronomía

Jul. 29, 2016 Salida Puesta
Hora real
Crepúsculo civil
Crepúsculo náutico
Crepúsculo astronómico
Luna
Horas de luz
Horas de luz
Tomorrow will be .
, % of the Moon is Illuminated

Extremos de hoy

Máximos del estado Bajos del estado

Community

WunderPhotos

Upload Photos

1,928,348 ¡fotos cargadas!

WunderBlog® & News

Nearby

Calidad del aire

  Calidad del aire Índice AQ Contaminante
Not available.

Grosos de nieve

Estación Profundido Altura

Actividad de terremotos

Ciudad Distance Mag. Tiempo y dato
Magnitud mínima muestra es 2,5.

Temperaturas de aguas costeras

Lugar Temperatura

Stations

Estaciones meteorológicas cercanas

Ubicación de la estación Temp. Vientos helados Punto de rocío Humedad Viento Precip. Alt Actualizado Tipo
                   

Watches & Warnings

There are currently no watches in effect.